createdAt,value
2022-08-21T00:00:30.222Z,51.325809
2022-08-21T00:01:30.203Z,51.325760
2022-08-21T00:02:30.232Z,51.325745
2022-08-21T00:03:30.194Z,51.325710
2022-08-21T00:04:30.329Z,51.325714
2022-08-21T00:05:30.139Z,51.325733
2022-08-21T00:06:30.103Z,51.325748
2022-08-21T00:07:31.093Z,51.325748
2022-08-21T00:08:30.122Z,51.325706
2022-08-21T00:09:30.073Z,51.325741
2022-08-21T00:10:30.187Z,51.325752
2022-08-21T00:11:30.032Z,51.325768
2022-08-21T00:12:30.052Z,51.325752
2022-08-21T00:13:30.032Z,51.325745
2022-08-21T00:14:31.298Z,51.325737
2022-08-21T00:15:48.020Z,51.325726
2022-08-21T00:16:29.950Z,51.325741
2022-08-21T00:17:29.964Z,51.325745
2022-08-21T00:18:29.945Z,51.325726
2022-08-21T00:19:29.892Z,51.325745
2022-08-21T00:20:29.881Z,51.325752
2022-08-21T00:21:29.869Z,51.325741
2022-08-21T00:22:29.845Z,51.325733
2022-08-21T00:23:29.860Z,51.325733
2022-08-21T00:24:29.812Z,51.325722
2022-08-21T00:25:29.790Z,51.325722
2022-08-21T00:26:29.778Z,51.325733
2022-08-21T00:27:29.768Z,51.325745
2022-08-21T00:28:29.788Z,51.325737
2022-08-21T00:29:29.742Z,51.325741
2022-08-21T00:30:29.721Z,51.325726
2022-08-21T00:31:29.704Z,51.325752
2022-08-21T00:32:29.677Z,51.325760
2022-08-21T00:33:29.692Z,51.325768
2022-08-21T00:34:29.681Z,51.325745
2022-08-21T00:35:29.647Z,51.325733
2022-08-21T00:36:29.610Z,51.325745
2022-08-21T00:37:30.507Z,51.325748
2022-08-21T00:38:29.606Z,51.325737
2022-08-21T00:39:29.563Z,51.325729
2022-08-21T00:40:29.560Z,51.325718
2022-08-21T00:41:37.546Z,51.325733
2022-08-21T00:42:30.517Z,51.325722
2022-08-21T00:43:29.556Z,51.325737
2022-08-21T00:44:29.497Z,51.325745
2022-08-21T00:45:29.465Z,51.325752
2022-08-21T00:46:29.448Z,51.325745
2022-08-21T00:47:29.446Z,51.325756
2022-08-21T00:48:29.466Z,51.325745
2022-08-21T00:49:29.393Z,51.325768
2022-08-21T00:50:29.386Z,51.325733
2022-08-21T00:51:29.356Z,51.325722
2022-08-21T00:52:29.344Z,51.325790
2022-08-21T00:53:29.358Z,51.325779
2022-08-21T00:54:29.312Z,51.325783
2022-08-21T00:55:29.311Z,51.325783
2022-08-21T00:56:29.274Z,51.325771
2022-08-21T00:57:29.263Z,51.325775
2022-08-21T00:58:29.278Z,51.325775
2022-08-21T00:59:29.233Z,51.325752
2022-08-21T01:00:29.206Z,51.325737
2022-08-21T01:01:29.241Z,51.325741
2022-08-21T01:02:29.174Z,51.325733
2022-08-21T01:03:29.201Z,51.325729
2022-08-21T01:04:29.147Z,51.325726
2022-08-21T01:05:29.126Z,51.325741
2022-08-21T01:06:29.097Z,51.325752
2022-08-21T01:07:29.104Z,51.325787
2022-08-21T01:08:29.103Z,51.325783
2022-08-21T01:09:29.046Z,51.325787
2022-08-21T01:10:30.033Z,51.325783
2022-08-21T01:11:29.019Z,51.325779
2022-08-21T01:12:28.991Z,51.325779
2022-08-21T01:13:29.017Z,51.325760
2022-08-21T01:14:29.962Z,51.325768
2022-08-21T01:15:28.945Z,51.325798
2022-08-21T01:16:28.941Z,51.325794
2022-08-21T01:17:28.913Z,51.325771
2022-08-21T01:18:28.931Z,51.325775
2022-08-21T01:19:28.961Z,51.325748
2022-08-21T01:20:32.544Z,51.325756
2022-08-21T01:21:28.854Z,51.325745
2022-08-21T01:22:28.834Z,51.325752
2022-08-21T01:23:28.844Z,51.325756
2022-08-21T01:24:29.809Z,51.325764
2022-08-21T01:25:28.795Z,51.325771
2022-08-21T01:26:34.537Z,51.325775
2022-08-21T01:27:29.746Z,51.325756
2022-08-21T01:28:28.777Z,51.325752
2022-08-21T01:29:28.723Z,51.325741
2022-08-21T01:30:28.701Z,51.325771
2022-08-21T01:31:28.693Z,51.325619
2022-08-21T01:32:28.661Z,51.325756
2022-08-21T01:33:28.704Z,51.325684
2022-08-21T01:34:28.666Z,51.325714
2022-08-21T01:35:28.625Z,51.325714
2022-08-21T01:36:28.595Z,51.325443
2022-08-21T01:37:28.578Z,51.325661
2022-08-21T01:38:28.630Z,51.325703
2022-08-21T01:39:28.557Z,51.325787
2022-08-21T01:40:28.568Z,51.325722
2022-08-21T01:41:28.525Z,51.325710
2022-08-21T01:42:28.507Z,51.325733
2022-08-21T01:43:39.141Z,51.325771
2022-08-21T01:44:29.476Z,51.325756
2022-08-21T01:45:28.441Z,51.325741
2022-08-21T01:46:28.435Z,51.325726
2022-08-21T01:47:28.415Z,51.325745
2022-08-21T01:48:28.427Z,51.325748
2022-08-21T01:49:28.393Z,51.325748
2022-08-21T01:50:28.390Z,51.325764
2022-08-21T01:51:28.343Z,51.325733
2022-08-21T01:52:28.329Z,51.325745
2022-08-21T01:53:33.215Z,51.325703
2022-08-21T01:54:29.307Z,51.325710
2022-08-21T01:55:28.286Z,51.325737
2022-08-21T01:56:28.262Z,51.325691
2022-08-21T01:57:28.254Z,51.325649
2022-08-21T01:58:28.232Z,51.325665
2022-08-21T01:59:28.243Z,51.325695
2022-08-21T02:00:28.192Z,51.325726
2022-08-21T02:01:28.235Z,51.325768
2022-08-21T02:02:28.156Z,51.325737
2022-08-21T02:03:35.803Z,51.325737
2022-08-21T02:04:29.152Z,51.325752
2022-08-21T02:05:28.115Z,51.325737
2022-08-21T02:06:28.089Z,51.325718
2022-08-21T02:07:28.075Z,51.325718
2022-08-21T02:08:28.068Z,51.325733
2022-08-21T02:09:28.105Z,51.325726
2022-08-21T02:10:28.035Z,51.325729
2022-08-21T02:11:28.014Z,51.325745
2022-08-21T02:12:28.003Z,51.325722
2022-08-21T02:13:27.985Z,51.325695
2022-08-21T02:14:32.929Z,51.325680
2022-08-21T02:15:28.954Z,51.325672
2022-08-21T02:16:27.933Z,51.325695
2022-08-21T02:17:27.918Z,51.325714
2022-08-21T02:18:27.902Z,51.325699
2022-08-21T02:19:27.922Z,51.325680
2022-08-21T02:20:28.875Z,51.325665
2022-08-21T02:21:27.863Z,51.325687
2022-08-21T02:22:27.862Z,51.325699
2022-08-21T02:23:27.825Z,51.325699
2022-08-21T02:24:27.833Z,51.325695
2022-08-21T02:25:27.793Z,51.325699
2022-08-21T02:26:27.786Z,51.325672
2022-08-21T02:27:27.750Z,51.325703
2022-08-21T02:28:27.805Z,51.325706
2022-08-21T02:29:27.783Z,51.325714
2022-08-21T02:30:27.702Z,51.325691
2022-08-21T02:31:28.699Z,51.325687
2022-08-21T02:32:27.685Z,51.325718
2022-08-21T02:33:27.751Z,51.325729
2022-08-21T02:34:29.279Z,51.325706
2022-08-21T02:35:27.637Z,51.325695
2022-08-21T02:36:27.617Z,51.325699
2022-08-21T02:37:27.602Z,51.325706
2022-08-21T02:38:27.580Z,51.325722
2022-08-21T02:39:27.831Z,51.325706
2022-08-21T02:40:27.528Z,51.325718
2022-08-21T02:41:27.533Z,51.325718
2022-08-21T02:42:27.504Z,51.325768
2022-08-21T02:43:27.505Z,51.325752
2022-08-21T02:44:30.093Z,51.325733
2022-08-21T02:45:28.465Z,51.325718
2022-08-21T02:46:27.441Z,51.325726
2022-08-21T02:47:27.425Z,51.325722
2022-08-21T02:48:27.409Z,51.325741
2022-08-21T02:49:27.417Z,51.325741
2022-08-21T02:50:27.376Z,51.325745
2022-08-21T02:51:27.364Z,51.325756
2022-08-21T02:52:27.335Z,51.325737
2022-08-21T02:53:27.316Z,51.325741
2022-08-21T02:54:27.336Z,51.325756
2022-08-21T02:55:27.282Z,51.325752
2022-08-21T02:56:29.768Z,51.325783
2022-08-21T02:57:27.253Z,51.325741
2022-08-21T02:58:27.247Z,51.325752
2022-08-21T02:59:27.258Z,51.325760
2022-08-21T03:00:27.223Z,51.325745
2022-08-21T03:01:27.228Z,51.325722
2022-08-21T03:02:27.174Z,51.325741
2022-08-21T03:03:27.155Z,51.325737
2022-08-21T03:04:27.161Z,51.325710
2022-08-21T03:05:27.128Z,51.325729
2022-08-21T03:06:27.101Z,51.325729
2022-08-21T03:07:27.083Z,51.325726
2022-08-21T03:08:27.797Z,51.325722
2022-08-21T03:09:27.081Z,51.325714
2022-08-21T03:10:27.031Z,51.325714
2022-08-21T03:11:27.028Z,51.325718
2022-08-21T03:12:28.529Z,51.325695
2022-08-21T03:13:26.990Z,51.325726
2022-08-21T03:14:26.995Z,51.325741
2022-08-21T03:15:27.945Z,51.325714
2022-08-21T03:16:26.935Z,51.325699
2022-08-21T03:17:29.561Z,51.325729
2022-08-21T03:18:27.907Z,51.325760
2022-08-21T03:19:26.909Z,51.325737
2022-08-21T03:20:26.863Z,51.325729
2022-08-21T03:21:26.855Z,51.325722
2022-08-21T03:22:26.860Z,51.325722
2022-08-21T03:23:26.821Z,51.325741
2022-08-21T03:24:27.838Z,51.325710
2022-08-21T03:25:40.306Z,51.325748
2022-08-21T03:26:28.040Z,51.325710
2022-08-21T03:27:27.766Z,51.325733
2022-08-21T03:28:26.743Z,51.325722
2022-08-21T03:29:26.752Z,51.325714
2022-08-21T03:30:26.735Z,51.325718
2022-08-21T03:31:26.705Z,51.325703
2022-08-21T03:32:26.671Z,51.325706
2022-08-21T03:33:26.651Z,51.325703
2022-08-21T03:34:26.677Z,51.325722
2022-08-21T03:35:26.625Z,51.325722
2022-08-21T03:36:26.635Z,51.325706
2022-08-21T03:37:26.596Z,51.325699
2022-08-21T03:38:26.919Z,51.325699
2022-08-21T03:39:27.594Z,51.325718
2022-08-21T03:40:26.541Z,51.325722
2022-08-21T03:41:26.519Z,51.325710
2022-08-21T03:42:26.503Z,51.325748
2022-08-21T03:43:26.488Z,51.325741
2022-08-21T03:44:26.504Z,51.325748
2022-08-21T03:45:26.461Z,51.325745
2022-08-21T03:46:26.453Z,51.325737
2022-08-21T03:47:26.452Z,51.325718
2022-08-21T03:48:26.415Z,51.325710
2022-08-21T03:49:26.443Z,51.325722
2022-08-21T03:50:26.379Z,51.325733
2022-08-21T03:51:26.364Z,51.325726
2022-08-21T03:52:26.359Z,51.325752
2022-08-21T03:53:26.323Z,51.325745
2022-08-21T03:54:26.356Z,51.325710
2022-08-21T03:55:26.310Z,51.325718
2022-08-21T03:56:26.281Z,51.325718
2022-08-21T03:57:26.273Z,51.325729
2022-08-21T03:58:26.247Z,51.325737
2022-08-21T03:59:26.276Z,51.325745
2022-08-21T04:00:26.216Z,51.325722
2022-08-21T04:01:26.214Z,51.325741
2022-08-21T04:02:26.178Z,51.325798
2022-08-21T04:03:26.170Z,51.325706
2022-08-21T04:04:26.182Z,51.325699
2022-08-21T04:05:26.135Z,51.325733
2022-08-21T04:06:26.112Z,51.325752
2022-08-21T04:07:26.095Z,51.325706
2022-08-21T04:08:26.106Z,51.325703
2022-08-21T04:09:26.100Z,51.325706
2022-08-21T04:10:26.057Z,51.325710
2022-08-21T04:11:26.033Z,51.325722
2022-08-21T04:12:26.023Z,51.325741
2022-08-21T04:13:25.993Z,51.325729
2022-08-21T04:14:26.007Z,51.325718
2022-08-21T04:15:25.969Z,51.325745
2022-08-21T04:16:25.946Z,51.325768
2022-08-21T04:17:25.941Z,51.325726
2022-08-21T04:18:25.920Z,51.325764
2022-08-21T04:19:25.928Z,51.325703
2022-08-21T04:20:25.895Z,51.325699
2022-08-21T04:21:25.889Z,51.325699
2022-08-21T04:22:25.848Z,51.325745
2022-08-21T04:23:25.859Z,51.325741
2022-08-21T04:24:25.858Z,51.325718
2022-08-21T04:25:25.806Z,51.325722
2022-08-21T04:26:25.794Z,51.325714
2022-08-21T04:27:25.786Z,51.325726
2022-08-21T04:28:28.887Z,51.325768
2022-08-21T04:29:25.788Z,51.325733
2022-08-21T04:30:28.567Z,51.325745
2022-08-21T04:31:25.695Z,51.325752
2022-08-21T04:32:25.700Z,51.325703
2022-08-21T04:33:25.670Z,51.325737
2022-08-21T04:34:25.682Z,51.325741
2022-08-21T04:35:25.637Z,51.325710
2022-08-21T04:36:25.625Z,51.325691
2022-08-21T04:37:25.599Z,51.325768
2022-08-21T04:38:25.582Z,51.325779
2022-08-21T04:39:29.461Z,51.325737
2022-08-21T04:40:25.639Z,51.325718
2022-08-21T04:41:28.271Z,51.325733
2022-08-21T04:42:25.519Z,51.325737
2022-08-21T04:43:25.508Z,51.325729
2022-08-21T04:44:25.532Z,51.325726
2022-08-21T04:45:25.478Z,51.325794
2022-08-21T04:46:25.457Z,51.325764
2022-08-21T04:47:41.834Z,51.325771
2022-08-21T04:48:26.414Z,51.325752
2022-08-21T04:49:25.448Z,51.325710
2022-08-21T04:50:25.383Z,51.325745
2022-08-21T04:51:25.369Z,51.325737
2022-08-21T04:52:25.347Z,51.325714
2022-08-21T04:53:25.335Z,51.325714
2022-08-21T04:54:25.341Z,51.325710
2022-08-21T04:55:25.298Z,51.325722
2022-08-21T04:56:25.291Z,51.325684
2022-08-21T04:57:25.261Z,51.325703
2022-08-21T04:58:26.250Z,51.325699
2022-08-21T04:59:25.278Z,51.325695
2022-08-21T05:00:25.232Z,51.325706
2022-08-21T05:01:25.265Z,51.325729
2022-08-21T05:02:25.187Z,51.325729
2022-08-21T05:03:25.171Z,51.325737
2022-08-21T05:04:25.251Z,51.325726
2022-08-21T05:05:25.139Z,51.325741
2022-08-21T05:06:25.119Z,51.325722
2022-08-21T05:07:42.311Z,51.325703
2022-08-21T05:08:26.116Z,51.325737
2022-08-21T05:09:25.102Z,51.325729
2022-08-21T05:10:25.056Z,51.325756
2022-08-21T05:11:25.034Z,51.325745
2022-08-21T05:12:25.020Z,51.325726
2022-08-21T05:13:25.023Z,51.325699
2022-08-21T05:14:25.023Z,51.325687
2022-08-21T05:15:24.960Z,51.325703
2022-08-21T05:16:36.430Z,51.325676
2022-08-21T05:17:25.975Z,51.325756
2022-08-21T05:18:24.906Z,51.325752
2022-08-21T05:19:24.953Z,51.325718
2022-08-21T05:20:24.976Z,51.325657
2022-08-21T05:21:24.862Z,51.325710
2022-08-21T05:22:24.840Z,51.325714
2022-08-21T05:23:24.823Z,51.325722
2022-08-21T05:24:24.840Z,51.325703
2022-08-21T05:25:24.794Z,51.325729
2022-08-21T05:26:24.776Z,51.325748
2022-08-21T05:27:24.753Z,51.325756
2022-08-21T05:28:24.742Z,51.325729
2022-08-21T05:29:24.762Z,51.325764
2022-08-21T05:30:24.708Z,51.325737
2022-08-21T05:31:24.687Z,51.325752
2022-08-21T05:32:24.681Z,51.325729
2022-08-21T05:33:24.659Z,51.325729
2022-08-21T05:34:24.662Z,51.325745
2022-08-21T05:35:24.625Z,51.325729
2022-08-21T05:36:24.605Z,51.325729
2022-08-21T05:37:24.586Z,51.325729
2022-08-21T05:38:24.567Z,51.325729
2022-08-21T05:39:25.579Z,51.325741
2022-08-21T05:40:24.580Z,51.325741
2022-08-21T05:41:24.520Z,51.325737
2022-08-21T05:42:24.495Z,51.325722
2022-08-21T05:43:24.479Z,51.325745
2022-08-21T05:44:24.511Z,51.325748
2022-08-21T05:45:34.691Z,51.325764
2022-08-21T05:46:25.440Z,51.325752
2022-08-21T05:47:24.429Z,51.325733
2022-08-21T05:48:24.402Z,51.325733
2022-08-21T05:49:24.413Z,51.325756
2022-08-21T05:50:24.360Z,51.325745
2022-08-21T05:51:25.528Z,51.325809
2022-08-21T05:52:24.337Z,51.325756
2022-08-21T05:53:24.314Z,51.325764
2022-08-21T05:54:24.333Z,51.325764
2022-08-21T05:55:24.278Z,51.325764
2022-08-21T05:56:24.280Z,51.325760
2022-08-21T05:57:24.251Z,51.325756
2022-08-21T05:58:24.228Z,51.325748
2022-08-21T05:59:24.236Z,51.325768
2022-08-21T06:00:24.251Z,51.325748
2022-08-21T06:01:24.229Z,51.325737
2022-08-21T06:02:24.170Z,51.325733
2022-08-21T06:03:24.152Z,51.325768
2022-08-21T06:04:24.162Z,51.325771
2022-08-21T06:05:36.341Z,51.325768
2022-08-21T06:06:25.100Z,51.325764
2022-08-21T06:07:24.085Z,51.325771
2022-08-21T06:08:24.074Z,51.325787
2022-08-21T06:09:24.074Z,51.325790
2022-08-21T06:10:24.032Z,51.325798
2022-08-21T06:11:28.332Z,51.325779
2022-08-21T06:12:26.007Z,51.325771
2022-08-21T06:13:23.999Z,51.325764
2022-08-21T06:14:24.002Z,51.325756
2022-08-21T06:15:23.962Z,51.325771
2022-08-21T06:16:50.346Z,51.325760
2022-08-21T06:17:23.928Z,51.325745
2022-08-21T06:18:23.916Z,51.325771
2022-08-21T06:19:23.929Z,51.325809
2022-08-21T06:20:23.889Z,51.325703
2022-08-21T06:21:23.914Z,51.325699
2022-08-21T06:22:23.849Z,51.325729
2022-08-21T06:23:23.826Z,51.325768
2022-08-21T06:24:24.862Z,51.325726
2022-08-21T06:25:23.818Z,51.325733
2022-08-21T06:26:23.803Z,51.325741
2022-08-21T06:27:26.627Z,51.325764
2022-08-21T06:28:24.768Z,51.325748
2022-08-21T06:29:23.769Z,51.325752
2022-08-21T06:30:23.738Z,51.325722
2022-08-21T06:31:23.724Z,51.325703
2022-08-21T06:32:23.682Z,51.325710
2022-08-21T06:33:23.664Z,51.325726
2022-08-21T06:34:23.689Z,51.325745
2022-08-21T06:35:23.651Z,51.325741
2022-08-21T06:36:23.615Z,51.325718
2022-08-21T06:37:23.594Z,51.325741
2022-08-21T06:38:23.659Z,51.325775
2022-08-21T06:39:25.626Z,51.325783
2022-08-21T06:40:24.590Z,51.325787
2022-08-21T06:41:24.272Z,51.325748
2022-08-21T06:42:23.514Z,51.325748
2022-08-21T06:43:23.506Z,51.325760
2022-08-21T06:44:24.560Z,51.325722
2022-08-21T06:45:23.513Z,51.325722
2022-08-21T06:46:23.462Z,51.325733
2022-08-21T06:47:23.459Z,51.325806
2022-08-21T06:48:23.415Z,51.325863
2022-08-21T06:49:23.435Z,51.325726
2022-08-21T06:50:23.379Z,51.325691
2022-08-21T06:51:23.381Z,51.325710
2022-08-21T06:52:23.354Z,51.325745
2022-08-21T06:53:23.393Z,51.325760
2022-08-21T06:54:23.412Z,51.325760
2022-08-21T06:55:26.290Z,51.325790
2022-08-21T06:56:24.288Z,51.325787
2022-08-21T06:57:23.267Z,51.325783
2022-08-21T06:58:23.275Z,51.325756
2022-08-21T06:59:23.279Z,51.325771
2022-08-21T07:00:23.228Z,51.325706
2022-08-21T07:01:23.265Z,51.325695
2022-08-21T07:02:23.206Z,51.325706
2022-08-21T07:03:23.195Z,51.325745
2022-08-21T07:04:23.212Z,51.325741
2022-08-21T07:05:23.145Z,51.325699
2022-08-21T07:06:23.150Z,51.325699
2022-08-21T07:07:23.133Z,51.325680
2022-08-21T07:08:23.107Z,51.325665
2022-08-21T07:09:24.821Z,51.325684
2022-08-21T07:10:24.072Z,51.325691
2022-08-21T07:11:23.061Z,51.325706
2022-08-21T07:12:23.074Z,51.325684
2022-08-21T07:13:23.027Z,51.325661
2022-08-21T07:14:23.043Z,51.325642
2022-08-21T07:15:22.996Z,51.325638
2022-08-21T07:16:22.983Z,51.325668
2022-08-21T07:17:22.957Z,51.325665
2022-08-21T07:18:22.956Z,51.325665
2022-08-21T07:19:22.963Z,51.325695
2022-08-21T07:20:22.918Z,51.325699
2022-08-21T07:21:25.981Z,51.325642
2022-08-21T07:22:23.893Z,51.325634
2022-08-21T07:23:22.881Z,51.325626
2022-08-21T07:24:22.939Z,51.325626
2022-08-21T07:25:22.845Z,51.325619
2022-08-21T07:26:22.906Z,51.325619
2022-08-21T07:27:22.807Z,51.325596
2022-08-21T07:28:22.803Z,51.325584
2022-08-21T07:29:22.841Z,51.325676
2022-08-21T07:30:22.846Z,51.325733
2022-08-21T07:31:22.749Z,51.325752
2022-08-21T07:32:22.741Z,51.325691
2022-08-21T07:33:22.747Z,51.325706
2022-08-21T07:34:22.752Z,51.325729
2022-08-21T07:35:22.704Z,51.325665
2022-08-21T07:36:22.673Z,51.325695
2022-08-21T07:37:22.668Z,51.325676
2022-08-21T07:38:22.654Z,51.325714
2022-08-21T07:39:22.661Z,51.325676
2022-08-21T07:40:22.737Z,51.325645
2022-08-21T07:41:22.623Z,51.325638
2022-08-21T07:42:22.603Z,51.325630
2022-08-21T07:43:22.580Z,51.325710
2022-08-21T07:44:22.623Z,51.325672
2022-08-21T07:45:22.571Z,51.325661
2022-08-21T07:46:22.552Z,51.325653
2022-08-21T07:47:41.571Z,51.325676
2022-08-21T07:48:23.523Z,51.325645
2022-08-21T07:49:22.575Z,51.325619
2022-08-21T07:50:22.484Z,51.325714
2022-08-21T07:51:22.465Z,51.325703
2022-08-21T07:52:22.472Z,51.325687
2022-08-21T07:53:22.489Z,51.325714
2022-08-21T07:54:33.670Z,51.325729
2022-08-21T07:55:23.418Z,51.325695
2022-08-21T07:56:22.426Z,51.325706
2022-08-21T07:57:22.390Z,51.325676
2022-08-21T07:58:22.408Z,51.325699
2022-08-21T07:59:22.425Z,51.325729
2022-08-21T08:00:22.411Z,51.325745
2022-08-21T08:01:22.391Z,51.325714
2022-08-21T08:02:22.318Z,51.325741
2022-08-21T08:03:28.783Z,51.325760
2022-08-21T08:04:26.362Z,51.325779
2022-08-21T08:05:23.281Z,51.325779
2022-08-21T08:06:22.320Z,51.325710
2022-08-21T08:07:22.297Z,51.325710
2022-08-21T08:08:22.267Z,51.325699
2022-08-21T08:09:22.335Z,51.325645
2022-08-21T08:10:22.229Z,51.325661
2022-08-21T08:11:22.214Z,51.325665
2022-08-21T08:12:22.201Z,51.325680
2022-08-21T08:13:22.181Z,51.325680
2022-08-21T08:14:31.336Z,51.325745
2022-08-21T08:15:23.160Z,51.325741
2022-08-21T08:16:22.292Z,51.325729
2022-08-21T08:17:22.196Z,51.325726
2022-08-21T08:18:22.114Z,51.325737
2022-08-21T08:19:22.150Z,51.325699
2022-08-21T08:20:22.081Z,51.325687
2022-08-21T08:21:22.119Z,51.325695
2022-08-21T08:22:22.084Z,51.325672
2022-08-21T08:23:22.070Z,51.325691
2022-08-21T08:24:22.059Z,51.325710
2022-08-21T08:25:22.036Z,51.325729
2022-08-21T08:26:22.007Z,51.325737
2022-08-21T08:27:22.018Z,51.325760
2022-08-21T08:28:21.985Z,51.325756
2022-08-21T08:29:22.022Z,51.325699
2022-08-21T08:30:21.981Z,51.325684
2022-08-21T08:31:21.944Z,51.325703
2022-08-21T08:32:21.955Z,51.325706
2022-08-21T08:33:21.932Z,51.325703
2022-08-21T08:34:25.181Z,51.325718
2022-08-21T08:35:24.338Z,51.325760
2022-08-21T08:36:21.905Z,51.325752
2022-08-21T08:37:21.883Z,51.325771
2022-08-21T08:38:24.436Z,51.325768
2022-08-21T08:39:27.106Z,51.325748
2022-08-21T08:40:22.921Z,51.325748
2022-08-21T08:41:21.854Z,51.325756
2022-08-21T08:42:32.098Z,51.325752
2022-08-21T08:43:22.796Z,51.325752
2022-08-21T08:44:21.809Z,51.325771
2022-08-21T08:45:21.780Z,51.325768
2022-08-21T08:46:21.757Z,51.325768
2022-08-21T08:47:21.738Z,51.325752
2022-08-21T08:48:21.750Z,51.325729
2022-08-21T08:49:21.774Z,51.325733
2022-08-21T08:50:21.697Z,51.325733
2022-08-21T08:51:21.707Z,51.325748
2022-08-21T08:52:21.690Z,51.325748
2022-08-21T08:53:21.670Z,51.325752
2022-08-21T08:54:21.696Z,51.325764
2022-08-21T08:55:25.376Z,51.325760
2022-08-21T08:56:23.634Z,51.325722
2022-08-21T08:57:21.619Z,51.325733
2022-08-21T08:58:21.612Z,51.325741
2022-08-21T08:59:21.628Z,51.325752
2022-08-21T09:00:21.616Z,51.325768
2022-08-21T09:01:21.636Z,51.325752
2022-08-21T09:02:21.583Z,51.325748
2022-08-21T09:03:21.546Z,51.325756
2022-08-21T09:04:21.560Z,51.325798
2022-08-21T09:05:21.518Z,51.325768
2022-08-21T09:06:21.525Z,51.325779
2022-08-21T09:07:21.541Z,51.325787
2022-08-21T09:08:22.481Z,51.325790
2022-08-21T09:09:21.521Z,51.325779
2022-08-21T09:10:21.452Z,51.325745
2022-08-21T09:11:21.447Z,51.325748
2022-08-21T09:12:21.522Z,51.325706
2022-08-21T09:13:21.409Z,51.325741
2022-08-21T09:14:21.460Z,51.325733
2022-08-21T09:15:21.399Z,51.325779
2022-08-21T09:16:21.436Z,51.325764
2022-08-21T09:17:21.374Z,51.325733
2022-08-21T09:18:21.344Z,51.325733
2022-08-21T09:19:24.881Z,51.325737
2022-08-21T09:20:21.360Z,51.325737
2022-08-21T09:21:21.342Z,51.325737
2022-08-21T09:22:21.305Z,51.325737
2022-08-21T09:23:21.323Z,51.325760
2022-08-21T09:24:21.279Z,51.325768
2022-08-21T09:25:21.313Z,51.325741
2022-08-21T09:26:21.243Z,51.325733
2022-08-21T09:27:21.241Z,51.325752
2022-08-21T09:28:21.232Z,51.325756
2022-08-21T09:29:21.206Z,51.325760
2022-08-21T09:30:21.236Z,51.325737
2022-08-21T09:31:21.210Z,51.325756
2022-08-21T09:32:21.169Z,51.325771
2022-08-21T09:33:21.183Z,51.325748
2022-08-21T09:34:21.147Z,51.325748
2022-08-21T09:35:21.174Z,51.325737
2022-08-21T09:36:21.123Z,51.325741
2022-08-21T09:37:21.109Z,51.325737
2022-08-21T09:38:21.119Z,51.325741
2022-08-21T09:39:21.104Z,51.325741
2022-08-21T09:40:21.177Z,51.325714
2022-08-21T09:41:21.073Z,51.325706
2022-08-21T09:42:21.048Z,51.325699
2022-08-21T09:43:21.040Z,51.325714
2022-08-21T09:44:21.021Z,51.325722
2022-08-21T09:45:21.052Z,51.325729
2022-08-21T09:46:21.015Z,51.325748
2022-08-21T09:47:24.966Z,51.325764
2022-08-21T09:48:26.320Z,51.325741
2022-08-21T09:49:20.972Z,51.325733
2022-08-21T09:50:20.988Z,51.325722
2022-08-21T09:51:20.939Z,51.325726
2022-08-21T09:52:21.932Z,51.325729
2022-08-21T09:53:20.964Z,51.325745
2022-08-21T09:54:20.914Z,51.325718
2022-08-21T09:55:21.006Z,51.325718
2022-08-21T09:56:24.214Z,51.325748
2022-08-21T09:57:20.877Z,51.325722
2022-08-21T09:58:20.837Z,51.325733
2022-08-21T09:59:20.838Z,51.325726
2022-08-21T10:00:20.869Z,51.325726
2022-08-21T10:01:21.937Z,51.325752
2022-08-21T10:02:20.805Z,51.325726
2022-08-21T10:03:20.784Z,51.325733
2022-08-21T10:04:20.781Z,51.325787
2022-08-21T10:05:20.784Z,51.325775
2022-08-21T10:06:20.739Z,51.325745
2022-08-21T10:07:20.727Z,51.325737
2022-08-21T10:08:20.736Z,51.325722
2022-08-21T10:09:21.787Z,51.325722
2022-08-21T10:10:21.751Z,51.325748
2022-08-21T10:11:20.677Z,51.325706
2022-08-21T10:12:20.687Z,51.325714
2022-08-21T10:13:20.645Z,51.325741
2022-08-21T10:14:20.653Z,51.325733
2022-08-21T10:15:20.656Z,51.325756
2022-08-21T10:16:20.613Z,51.325752
2022-08-21T10:17:20.618Z,51.325771
2022-08-21T10:18:20.620Z,51.325756
2022-08-21T10:19:20.577Z,51.325745
2022-08-21T10:20:20.587Z,51.325741
2022-08-21T10:21:20.614Z,51.325726
2022-08-21T10:22:20.552Z,51.325703
2022-08-21T10:23:20.520Z,51.325722
2022-08-21T10:24:30.930Z,51.325741
2022-08-21T10:25:21.539Z,51.325745
2022-08-21T10:26:20.479Z,51.325741
2022-08-21T10:27:20.478Z,51.325722
2022-08-21T10:28:20.452Z,51.325714
2022-08-21T10:29:20.452Z,51.325722
2022-08-21T10:30:20.470Z,51.325733
2022-08-21T10:31:20.414Z,51.325722
2022-08-21T10:32:25.851Z,51.325737
2022-08-21T10:33:21.384Z,51.325729
2022-08-21T10:34:20.402Z,51.325722
2022-08-21T10:35:20.389Z,51.325729
2022-08-21T10:36:20.361Z,51.325737
2022-08-21T10:37:20.336Z,51.325745
2022-08-21T10:38:46.283Z,51.325741
2022-08-21T10:39:35.510Z,51.325741
2022-08-21T10:40:22.377Z,51.325756
2022-08-21T10:41:20.283Z,51.325764
2022-08-21T10:42:22.706Z,51.325764
2022-08-21T10:43:21.252Z,51.325748
2022-08-21T10:44:20.246Z,51.325756
2022-08-21T10:45:20.257Z,51.325733
2022-08-21T10:46:20.231Z,51.325733
2022-08-21T10:47:20.188Z,51.325718
2022-08-21T10:48:20.168Z,51.325718
2022-08-21T10:49:20.171Z,51.325722
2022-08-21T10:50:20.176Z,51.325760
2022-08-21T10:51:20.131Z,51.325756
2022-08-21T10:52:21.164Z,51.325752
2022-08-21T10:53:20.120Z,51.325726
2022-08-21T10:54:23.390Z,51.325733
2022-08-21T10:55:21.131Z,51.325748
2022-08-21T10:56:20.119Z,51.325752
2022-08-21T10:57:24.066Z,51.325775
2022-08-21T10:58:21.043Z,51.325741
2022-08-21T10:59:20.042Z,51.325703
2022-08-21T11:00:20.030Z,51.325737
2022-08-21T11:01:20.071Z,51.325691
2022-08-21T11:02:19.969Z,51.325703
2022-08-21T11:03:19.958Z,51.325703
2022-08-21T11:04:19.943Z,51.325710
2022-08-21T11:05:19.965Z,51.325695
2022-08-21T11:06:19.907Z,51.325741
2022-08-21T11:07:19.884Z,51.325703
2022-08-21T11:08:19.868Z,51.325703
2022-08-21T11:09:19.874Z,51.325706
2022-08-21T11:10:19.991Z,51.325706
2022-08-21T11:11:19.947Z,51.325718
2022-08-21T11:12:19.817Z,51.325729
2022-08-21T11:13:19.862Z,51.325729
2022-08-21T11:14:19.794Z,51.325703
2022-08-21T11:15:28.734Z,51.325706
2022-08-21T11:16:20.758Z,51.325737
2022-08-21T11:17:21.947Z,51.325741
2022-08-21T11:18:20.718Z,51.325733
2022-08-21T11:19:19.707Z,51.325722
2022-08-21T11:20:19.719Z,51.325733
2022-08-21T11:21:19.737Z,51.325737
2022-08-21T11:22:19.651Z,51.325726
2022-08-21T11:23:19.654Z,51.325699
2022-08-21T11:24:19.605Z,51.325729